Time;durP1;ratioP1;P1;durP2;ratioP2;P2;SDS_P1;SDS_P2;PMS_P1;PMS_P2;Temp;Humidity;BMP_temperature;BMP_pressure;BME280_temperature;BME280_humidity;BME280_pressure;Samples;Min_cycle;Max_cycle;Signal;HPM_P1;HPM_P2
2023/08/03 00:01:32;;;;;;;5.77;2.33;;;;;;;14.89;100.00;98831.88;5282398;28;20028;-81
2023/08/03 00:04:03;;;;;;;8.67;2.80;;;;;;;14.90;100.00;98836.19;5283561;28;20033;-81
2023/08/03 00:06:35;;;;;;;5.53;2.73;;;;;;;14.84;100.00;98828.69;5283347;28;20028;-81
2023/08/03 00:09:06;;;;;;;4.40;2.37;;;;;;;14.86;100.00;98832.91;5283784;28;20032;-80
2023/08/03 00:11:38;;;;;;;6.50;2.60;;;;;;;14.87;100.00;98845.06;5282402;28;20036;-78
2023/08/03 00:14:09;;;;;;;6.23;3.30;;;;;;;14.89;100.00;98839.75;5283366;28;20025;-79
2023/08/03 00:16:40;;;;;;;5.60;3.70;;;;;;;14.89;100.00;98832.72;5282174;28;20028;-80
2023/08/03 00:19:12;;;;;;;8.97;4.33;;;;;;;14.88;100.00;98844.16;5299300;28;20104;-78
2023/08/03 00:21:43;;;;;;;9.63;4.93;;;;;;;14.89;100.00;98848.47;5285505;28;20806;-78
2023/08/03 00:24:14;;;;;;;7.57;4.77;;;;;;;14.92;100.00;98852.66;5284382;28;20044;-79
2023/08/03 00:26:46;;;;;;;11.13;5.57;;;;;;;14.93;100.00;98851.75;5283231;28;20039;-79
2023/08/03 00:29:17;;;;;;;11.77;6.37;;;;;;;14.93;100.00;98857.00;5284049;28;20127;-80
2023/08/03 00:31:48;;;;;;;12.27;6.83;;;;;;;14.97;100.00;98853.22;5283755;28;20063;-80
2023/08/03 00:34:20;;;;;;;12.20;7.63;;;;;;;14.95;100.00;98868.22;5283816;28;20476;-80
2023/08/03 00:36:51;;;;;;;15.67;7.70;;;;;;;14.97;100.00;98868.97;5282409;28;20043;-80
2023/08/03 00:39:23;;;;;;;15.13;7.63;;;;;;;15.02;100.00;98873.94;5283611;28;20020;-82
2023/08/03 00:41:55;;;;;;;20.37;9.20;;;;;;;15.02;100.00;98879.19;5285902;28;20032;-81
2023/08/03 00:44:26;;;;;;;40.60;10.33;;;;;;;15.01;100.00;98885.38;5290895;28;20032;-77
2023/08/03 00:46:57;;;;;;;18.60;9.93;;;;;;;15.02;100.00;98902.78;5290900;28;20032;-74
2023/08/03 00:49:29;;;;;;;25.80;10.43;;;;;;;14.98;100.00;98902.13;5290827;28;20375;-74
2023/08/03 00:52:00;;;;;;;18.13;11.23;;;;;;;14.98;100.00;98896.91;5289432;28;20024;-73
2023/08/03 00:54:31;;;;;;;22.47;11.57;;;;;;;15.00;100.00;98896.81;5287558;28;20063;-75
2023/08/03 00:57:04;;;;;;;22.80;12.10;;;;;;;14.99;100.00;98910.84;5286794;28;20115;-74
2023/08/03 00:59:35;;;;;;;23.35;11.65;;;;;;;15.00;100.00;98916.00;5287100;28;20468;-73
2023/08/03 01:02:08;;;;;;;22.00;12.73;;;;;;;14.99;100.00;98921.34;5287292;28;20028;-74
2023/08/03 01:04:39;;;;;;;18.23;12.25;;;;;;;15.00;100.00;98931.75;5287036;28;20111;-74
2023/08/03 01:07:11;;;;;;;21.53;13.37;;;;;;;15.03;100.00;98934.19;5287161;28;20127;-74
2023/08/03 01:09:42;;;;;;;22.13;13.60;;;;;;;15.00;100.00;98936.16;5287126;28;20031;-74
2023/08/03 01:12:14;;;;;;;21.20;12.87;;;;;;;15.02;100.00;98935.16;5287107;28;20086;-74
2023/08/03 01:14:45;;;;;;;17.60;13.03;;;;;;;15.02;100.00;98935.16;5286896;28;20056;-74
2023/08/03 01:17:17;;;;;;;22.57;14.33;;;;;;;15.05;100.00;98945.47;5286919;28;20481;-73
2023/08/03 01:19:48;;;;;;;20.20;12.70;;;;;;;15.08;100.00;98941.78;5286719;28;20124;-74
2023/08/03 01:22:20;;;;;;;20.50;12.20;;;;;;;15.06;100.00;98948.91;5286814;28;20039;-73
2023/08/03 01:24:52;;;;;;;18.92;12.55;;;;;;;15.06;100.00;98960.25;5286612;28;20025;-73
2023/08/03 01:27:23;;;;;;;17.20;11.17;;;;;;;15.07;100.00;98956.69;5285740;28;20028;-74
2023/08/03 01:29:54;;;;;;;19.30;11.50;;;;;;;15.07;100.00;98964.56;5286743;28;20353;-75
2023/08/03 01:32:26;;;;;;;12.37;10.13;;;;;;;15.08;100.00;98981.97;5286137;28;20369;-75
2023/08/03 01:34:59;;;;;;;16.17;9.97;;;;;;;15.09;100.00;98977.59;5286393;28;20029;-75
2023/08/03 01:37:30;;;;;;;19.33;11.00;;;;;;;15.11;100.00;98975.72;5286305;28;20031;-76
2023/08/03 01:40:03;;;;;;;15.90;9.73;;;;;;;15.08;100.00;98984.59;5286509;28;20028;-77
2023/08/03 01:42:34;;;;;;;14.82;7.97;;;;;;;15.07;100.00;98982.94;5286219;28;20031;-74
2023/08/03 01:45:06;;;;;;;12.60;8.40;;;;;;;15.07;100.00;98977.69;5286318;28;20032;-76
2023/08/03 01:47:38;;;;;;;13.10;8.40;;;;;;;15.09;100.00;98981.06;5286118;28;20033;-76
2023/08/03 01:50:09;;;;;;;14.90;8.73;;;;;;;15.07;100.00;98985.56;5286161;28;20090;-76
2023/08/03 01:52:40;;;;;;;12.87;7.57;;;;;;;15.06;100.00;98990.91;5285209;28;20033;-75
2023/08/03 01:55:12;;;;;;;14.10;7.07;;;;;;;15.04;100.00;98979.66;5286063;28;20028;-75
2023/08/03 01:57:44;;;;;;;11.87;6.90;;;;;;;15.04;100.00;98983.13;5285428;28;20032;-75
2023/08/03 02:00:15;;;;;;;13.57;5.90;;;;;;;15.08;100.00;98975.91;5285503;28;20060;-77
2023/08/03 02:02:47;;;;;;;10.53;5.37;;;;;;;15.04;100.00;98990.16;5285668;28;20025;-75
2023/08/03 02:05:18;;;;;;;8.73;5.10;;;;;;;15.04;100.00;98990.16;5286193;28;20479;-76
2023/08/03 02:07:53;;;;;;;8.93;5.23;;;;;;;15.05;100.00;98992.69;5284583;28;20439;-75
2023/08/03 02:10:25;;;;;;;13.63;5.90;;;;;;;15.06;100.00;98993.53;5286222;28;20033;-76
2023/08/03 02:12:56;;;;;;;14.90;6.63;;;;;;;15.03;100.00;98997.16;5285805;28;20337;-75
2023/08/03 02:15:27;;;;;;;15.37;6.90;;;;;;;15.04;100.00;98984.91;5286085;28;20467;-75
2023/08/03 02:17:59;;;;;;;19.13;8.47;;;;;;;15.03;100.00;98991.91;5285998;28;20070;-74
2023/08/03 02:20:30;;;;;;;22.63;8.67;;;;;;;15.03;100.00;98981.41;5284584;28;20106;-74
2023/08/03 02:23:02;;;;;;;21.87;7.93;;;;;;;15.02;100.00;98986.75;5285749;28;20082;-77
2023/08/03 02:25:33;;;;;;;34.03;10.57;;;;;;;15.01;100.00;98988.53;5284809;28;20108;-77
2023/08/03 02:28:04;;;;;;;21.57;7.80;;;;;;;15.00;100.00;98986.00;5285272;28;20028;-77
2023/08/03 02:30:37;;;;;;;30.87;10.13;;;;;;;15.01;100.00;98969.34;5285151;28;20475;-76
2023/08/03 02:33:09;;;;;;;22.15;8.45;;;;;;;14.99;100.00;98984.31;5285212;28;20028;-75
2023/08/03 02:35:40;;;;;;;26.03;9.83;;;;;;;15.00;100.00;98976.34;5285291;28;20039;-76
2023/08/03 02:38:11;;;;;;;22.77;9.23;;;;;;;14.98;100.00;98991.34;5285350;28;20036;-76
2023/08/03 02:40:43;;;;;;;24.87;8.93;;;;;;;14.98;100.00;98987.91;5284817;28;20028;-77
2023/08/03 02:43:14;;;;;;;27.60;9.90;;;;;;;15.01;100.00;98992.97;5285242;28;20032;-76
2023/08/03 02:45:45;;;;;;;20.27;8.60;;;;;;;14.97;100.00;98980.94;5285262;28;20025;-74
2023/08/03 02:48:17;;;;;;;22.90;9.37;;;;;;;14.98;100.00;98977.41;5283807;28;20029;-77
2023/08/03 02:50:48;;;;;;;24.87;9.10;;;;;;;14.94;100.00;98979.34;5285195;28;20036;-77
2023/08/03 02:53:19;;;;;;;26.47;9.40;;;;;;;14.94;100.00;98974.94;5285002;28;20531;-77
2023/08/03 02:55:51;;;;;;;27.87;10.50;;;;;;;14.99;100.00;98979.94;5284130;28;20089;-76
2023/08/03 02:58:22;;;;;;;30.63;10.32;;;;;;;14.97;100.00;98984.41;5284831;28;20549;-77
2023/08/03 03:00:54;;;;;;;34.20;9.23;;;;;;;14.94;100.00;98995.94;5283314;28;20084;-75
2023/08/03 03:03:25;;;;;;;27.97;9.60;;;;;;;14.98;100.00;98983.47;5284999;28;20036;-76
2023/08/03 03:05:56;;;;;;;21.70;8.13;;;;;;;14.95;100.00;98995.00;5284690;28;20467;-75
2023/08/03 03:08:28;;;;;;;30.07;9.47;;;;;;;14.92;100.00;99008.31;5284540;28;20043;-75
2023/08/03 03:10:59;;;;;;;23.73;8.13;;;;;;;14.94;100.00;99014.31;5284660;28;20039;-76
2023/08/03 03:13:30;;;;;;;26.53;7.63;;;;;;;14.95;100.00;99009.91;5284450;28;20032;-77
2023/08/03 03:16:02;;;;;;;26.73;8.93;;;;;;;14.95;100.00;99012.53;5284414;28;20111;-75
2023/08/03 03:18:33;;;;;;;21.10;7.97;;;;;;;14.93;100.00;99015.22;5284045;28;20036;-78
2023/08/03 03:21:05;;;;;;;31.30;9.73;;;;;;;14.92;100.00;99002.19;5300001;28;20032;-75
2023/08/03 03:23:36;;;;;;;21.73;7.53;;;;;;;14.89;100.00;99021.63;5284268;28;20029;-75
2023/08/03 03:26:07;;;;;;;19.20;7.27;;;;;;;14.89;100.00;99024.22;5283670;28;20033;-76
2023/08/03 03:28:39;;;;;;;16.50;7.70;;;;;;;14.84;100.00;99012.31;5284443;28;20029;-74
2023/08/03 03:31:10;;;;;;;22.47;6.87;;;;;;;14.87;100.00;99022.63;5283169;28;20384;-74
2023/08/03 03:33:41;;;;;;;18.33;6.90;;;;;;;14.85;100.00;99035.00;5284466;28;20497;-74
2023/08/03 03:36:13;;;;;;;25.20;6.83;;;;;;;14.86;100.00;99032.28;5284094;28;20464;-75
2023/08/03 03:38:44;;;;;;;17.27;6.20;;;;;;;14.86;100.00;99045.41;5282660;28;20028;-73
2023/08/03 03:41:15;;;;;;;17.63;5.83;;;;;;;14.88;100.00;99043.53;5283936;28;20086;-74
2023/08/03 03:43:47;;;;;;;15.90;5.90;;;;;;;14.88;100.00;99037.44;5283847;28;20032;-73
2023/08/03 03:46:18;;;;;;;25.00;8.93;;;;;;;14.86;100.00;99045.41;5283858;28;20032;-73
2023/08/03 03:48:49;;;;;;;20.13;8.13;;;;;;;14.85;100.00;99053.34;5282204;28;20474;-75
2023/08/03 03:51:21;;;;;;;21.87;7.13;;;;;;;14.85;100.00;99064.69;5283819;28;20182;-74
2023/08/03 03:53:53;;;;;;;17.50;6.47;;;;;;;14.84;100.00;99062.97;5283731;28;20029;-75
2023/08/03 03:56:24;;;;;;;19.40;7.37;;;;;;;14.83;100.00;99061.31;5281999;28;20020;-74
2023/08/03 03:58:55;;;;;;;18.80;6.13;;;;;;;14.82;100.00;99095.50;5283406;28;20484;-75
2023/08/03 04:01:27;;;;;;;14.97;5.73;;;;;;;14.82;100.00;99083.22;5283628;28;20452;-74
2023/08/03 04:03:58;;;;;;;12.53;6.03;;;;;;;14.82;100.00;99083.22;5283579;28;20036;-75
2023/08/03 04:06:29;;;;;;;17.97;6.90;;;;;;;14.81;100.00;99086.78;5283664;28;20024;-74
2023/08/03 04:09:01;;;;;;;18.10;6.93;;;;;;;14.83;100.00;99089.31;5282236;28;20128;-74
2023/08/03 04:11:32;;;;;;;15.93;6.23;;;;;;;14.79;100.00;99087.81;5282178;28;20488;-75
2023/08/03 04:14:04;;;;;;;18.70;6.83;;;;;;;14.78;100.00;99097.47;5283434;28;20089;-74
2023/08/03 04:16:35;;;;;;;17.77;6.73;;;;;;;14.79;100.00;99099.13;5283384;28;20070;-74
2023/08/03 04:19:06;;;;;;;15.83;6.20;;;;;;;14.78;100.00;99094.84;5283354;28;20039;-74
2023/08/03 04:21:38;;;;;;;15.80;6.40;;;;;;;14.80;100.00;99103.47;5283527;28;20028;-74
2023/08/03 04:24:09;;;;;;;17.67;7.10;;;;;;;14.80;100.00;99105.25;5283003;28;20036;-73
2023/08/03 04:26:40;;;;;;;17.00;7.60;;;;;;;14.80;100.00;99111.31;5264593;28;20419;-73
2023/08/03 04:29:12;;;;;;;15.33;7.03;;;;;;;14.78;100.00;99102.72;5298946;28;20033;-74
2023/08/03 04:31:43;;;;;;;13.03;6.80;;;;;;;14.80;100.00;99127.06;5283472;28;20040;-74
2023/08/03 04:34:14;;;;;;;14.10;6.50;;;;;;;14.80;100.00;99127.06;5283033;28;20031;-73
2023/08/03 04:36:47;;;;;;;12.93;6.40;;;;;;;14.81;100.00;99134.00;5283128;28;20427;-71
2023/08/03 04:39:18;;;;;;;;;;;;;;;14.77;100.00;99133.31;5283428;28;20403;-73
2023/08/03 04:41:50;;;;;;;16.40;6.72;;;;;;;14.76;100.00;99136.91;5281798;28;19920;-73
2023/08/03 04:44:21;;;;;;;11.93;6.77;;;;;;;14.80;100.00;99160.34;5298486;28;20033;-72
2023/08/03 04:46:52;;;;;;;13.27;6.30;;;;;;;14.80;100.00;99153.28;5283147;28;20521;-72
2023/08/03 04:49:25;;;;;;;11.73;5.90;;;;;;;14.77;100.00;99153.47;5283111;28;20032;-73
2023/08/03 04:51:56;;;;;;;;;;;;;;;14.76;100.00;99160.50;5283375;28;20495;-73
2023/08/03 04:54:28;;;;;;;10.63;4.97;;;;;;;14.80;100.00;99160.34;5282910;28;19959;-72
2023/08/03 04:56:59;;;;;;;7.93;4.70;;;;;;;14.76;100.00;99164.88;5282029;28;20024;-71
2023/08/03 04:59:31;;;;;;;7.73;4.87;;;;;;;14.76;100.00;99171.00;5281185;28;20493;-73
2023/08/03 05:02:02;;;;;;;9.17;5.67;;;;;;;14.80;100.00;99176.06;5282895;28;20461;-73
2023/08/03 05:04:34;;;;;;;10.93;6.67;;;;;;;14.80;100.00;99184.78;5283020;28;20060;-74
2023/08/03 05:07:05;;;;;;;10.57;5.63;;;;;;;14.81;100.00;99178.59;5282658;28;20035;-75
2023/08/03 05:09:36;;;;;;;9.23;5.00;;;;;;;14.81;100.00;99178.59;5282863;28;20028;-73
2023/08/03 05:12:08;;;;;;;11.60;5.00;;;;;;;14.82;100.00;99185.53;5282802;28;20180;-73
2023/08/03 05:14:39;;;;;;;8.70;4.73;;;;;;;14.80;100.00;99189.19;5282830;28;20081;-73
2023/08/03 05:17:11;;;;;;;10.33;4.73;;;;;;;14.80;100.00;99189.19;5282821;28;20036;-73
2023/08/03 05:19:42;;;;;;;6.67;3.60;;;;;;;14.83;100.00;99202.09;5282447;28;20116;-74
2023/08/03 05:22:13;;;;;;;7.30;3.70;;;;;;;14.82;100.00;99218.78;5282744;28;20058;-75
2023/08/03 05:24:45;;;;;;;10.37;3.83;;;;;;;14.81;100.00;99212.72;5282433;28;20127;-74
2023/08/03 05:27:16;;;;;;;11.07;3.43;;;;;;;14.77;100.00;99219.88;5282180;28;20040;-73
2023/08/03 05:29:48;;;;;;;9.20;3.40;;;;;;;14.81;100.00;99219.72;5285837;28;20047;-74
2023/08/03 05:32:19;;;;;;;12.63;4.13;;;;;;;14.82;100.00;99224.88;5286607;28;20044;-74
2023/08/03 05:34:50;;;;;;;10.00;3.57;;;;;;;14.85;100.00;99222.09;5286626;28;20028;-74
2023/08/03 05:37:22;;;;;;;10.10;3.80;;;;;;;14.87;100.00;99227.25;5286542;28;20028;-74
2023/08/03 05:39:53;;;;;;;9.83;3.93;;;;;;;14.87;100.00;99233.31;5286626;28;20115;-72
2023/08/03 05:42:31;;;;;;;10.57;3.77;;;;;;;14.89;100.00;99235.88;5286090;28;20033;-75
2023/08/03 05:45:11;;;;;;;12.75;4.38;;;;;;;14.92;100.00;99239.19;5286149;28;20059;-75
2023/08/03 05:47:42;;;;;;;9.07;3.70;;;;;;;14.96;100.00;99242.47;5285821;28;20032;-73
2023/08/03 05:50:15;;;;;;;13.07;4.87;;;;;;;14.90;100.00;99245.44;5286219;28;20029;-73
2023/08/03 05:52:46;;;;;;;9.57;3.13;;;;;;;14.91;100.00;99260.28;5286129;28;20094;-74
2023/08/03 05:55:17;;;;;;;8.10;3.50;;;;;;;14.87;100.00;99254.31;5286440;28;20033;-75
2023/08/03 05:57:49;;;;;;;8.73;3.07;;;;;;;14.90;100.00;99263.81;5285582;28;20341;-74
2023/08/03 06:00:23;;;;;;;17.47;2.87;;;;;;;14.85;100.00;99263.22;5285988;28;20044;-75
2023/08/03 06:02:57;;;;;;;11.82;2.97;;;;;;;14.84;100.00;99280.72;5285786;28;20033;-74
2023/08/03 06:05:39;;;;;;;12.18;3.50;;;;;;;14.84;100.00;99269.38;5285935;28;20119;-75
2023/08/03 06:08:12;;;;;;;10.98;3.03;;;;;;;14.84;100.00;99285.97;5285938;28;20460;-75
2023/08/03 06:10:45;;;;;;;11.57;3.30;;;;;;;14.91;100.00;99289.97;5286070;28;20406;-74
2023/08/03 06:13:26;;;;;;;11.27;3.20;;;;;;;14.92;100.00;99296.91;5285730;28;20472;-75
2023/08/03 06:15:57;;;;;;;13.23;3.35;;;;;;;14.95;100.00;99293.25;5285415;28;20032;-73
2023/08/03 06:18:30;;;;;;;11.33;3.57;;;;;;;14.96;100.00;99302.84;5285881;28;20040;-74
2023/08/03 06:21:03;;;;;;;9.82;3.33;;;;;;;15.01;100.00;99295.56;5285357;28;20052;-74
2023/08/03 06:23:39;;;;;;;12.40;3.65;;;;;;;15.04;100.00;99299.78;5284176;28;20032;-75
2023/08/03 06:26:12;;;;;;;12.32;4.28;;;;;;;15.05;100.00;99294.47;5284911;28;20028;-74
2023/08/03 06:28:45;;;;;;;12.35;4.20;;;;;;;15.01;100.00;99321.78;5285435;28;20074;-75
2023/08/03 06:31:28;;;;;;;12.32;3.88;;;;;;;15.05;100.00;99315.47;5285367;28;20033;-74
2023/08/03 06:34:00;;;;;;;11.40;3.58;;;;;;;15.01;100.00;99313.09;5285551;28;20032;-76
2023/08/03 06:36:35;;;;;;;9.27;4.20;;;;;;;14.99;100.00;99315.78;5285312;28;20115;-76
2023/08/03 06:39:06;;;;;;;13.38;3.47;;;;;;;14.99;100.00;99321.03;5285051;28;20067;-74
2023/08/03 06:41:37;;;;;;;11.37;3.23;;;;;;;14.97;100.00;99328.13;5284949;28;20064;-76
2023/08/03 06:44:09;;;;;;;11.20;3.17;;;;;;;14.98;100.00;99336.88;5283985;28;20025;-75
2023/08/03 06:46:40;;;;;;;10.93;3.47;;;;;;;15.00;100.00;99343.69;5285037;28;20056;-74
2023/08/03 06:49:12;;;;;;;8.73;2.90;;;;;;;15.02;100.00;99341.00;5283826;28;20082;-73
2023/08/03 06:51:43;;;;;;;11.70;3.30;;;;;;;15.05;100.00;99346.09;5283848;28;20115;-76
2023/08/03 06:54:14;;;;;;;8.40;2.70;;;;;;;15.11;100.00;99353.63;5285121;28;20032;-75
2023/08/03 06:56:46;;;;;;;10.77;3.03;;;;;;;15.15;100.00;99360.41;5284455;28;20072;-75
2023/08/03 06:59:21;;;;;;;8.17;2.73;;;;;;;15.18;100.00;99368.09;5284977;28;20127;-75
2023/08/03 07:01:52;;;;;;;9.20;2.83;;;;;;;15.32;100.00;99368.19;5284968;28;20060;-75
2023/08/03 07:04:24;;;;;;;10.83;3.83;;;;;;;15.45;100.00;99362.25;5285054;28;20032;-76
2023/08/03 07:06:55;;;;;;;10.93;3.00;;;;;;;15.54;100.00;99380.16;5277654;28;20389;-76
2023/08/03 07:09:26;;;;;;;8.23;3.67;;;;;;;15.48;100.00;99396.25;5282407;28;20036;-76
2023/08/03 07:11:59;;;;;;;5.50;2.80;;;;;;;15.52;100.00;99384.66;5283988;28;20527;-75
2023/08/03 07:14:33;;;;;;;9.00;2.08;;;;;;;15.63;100.00;99387.53;5282321;28;20463;-74
2023/08/03 07:17:04;;;;;;;6.00;2.58;;;;;;;15.76;100.00;99394.69;5284000;28;20056;-75
2023/08/03 07:19:36;;;;;;;9.07;2.93;;;;;;;15.77;100.00;99407.78;5283317;28;20060;-73
2023/08/03 07:22:08;;;;;;;9.80;2.40;;;;;;;15.84;100.00;99408.25;5282509;28;20029;-74
2023/08/03 07:24:40;;;;;;;7.03;2.20;;;;;;;15.82;100.00;99404.88;5282717;28;20035;-75
2023/08/03 07:27:11;;;;;;;7.33;2.33;;;;;;;15.81;100.00;99404.06;5283316;28;20032;-76
2023/08/03 07:29:44;;;;;;;8.60;2.47;;;;;;;15.73;100.00;99414.13;5282044;28;20120;-75
2023/08/03 07:32:15;;;;;;;12.18;3.20;;;;;;;15.78;100.00;99409.47;5283580;28;20033;-76
2023/08/03 07:34:46;;;;;;;4.80;2.13;;;;;;;15.97;100.00;99421.56;5281477;28;20390;-76
2023/08/03 07:37:18;;;;;;;9.40;2.40;;;;;;;16.16;100.00;99437.97;5280352;28;20483;-74
2023/08/03 07:39:49;;;;;;;9.83;2.90;;;;;;;16.37;100.00;99422.75;5277411;28;20040;-76
2023/08/03 07:42:20;;;;;;;11.70;3.43;;;;;;;16.36;100.00;99431.56;5280489;28;20028;-76
2023/08/03 07:44:53;;;;;;;14.33;3.00;;;;;;;16.22;100.00;99436.78;5282369;28;20040;-76
2023/08/03 07:47:25;;;;;;;8.60;3.20;;;;;;;16.11;100.00;99440.00;5281896;28;20107;-76
2023/08/03 07:49:56;;;;;;;9.03;2.67;;;;;;;16.09;100.00;99433.19;5283183;28;20127;-77
2023/08/03 07:52:27;;;;;;;10.83;3.50;;;;;;;16.08;100.00;99440.19;5285086;28;20127;-75
2023/08/03 07:54:59;;;;;;;8.67;2.87;;;;;;;16.05;100.00;99450.88;5287386;28;20037;-77
2023/08/03 07:57:30;;;;;;;10.73;3.03;;;;;;;16.09;100.00;99443.69;5287553;28;20058;-76
2023/08/03 08:00:03;;;;;;;14.17;3.43;;;;;;;15.93;100.00;99462.09;5283937;28;20403;-78
2023/08/03 08:02:35;;;;;;;9.88;3.25;;;;;;;15.81;100.00;99461.84;5284102;28;20063;-76
2023/08/03 08:05:06;;;;;;;10.53;3.47;;;;;;;15.77;100.00;99477.88;5283287;28;20515;-75
2023/08/03 08:07:38;;;;;;;10.00;2.73;;;;;;;15.62;100.00;99469.88;5281163;28;20039;-77
2023/08/03 08:10:12;;;;;;;14.53;3.40;;;;;;;15.57;100.00;99481.53;5282732;28;20040;-77
2023/08/03 08:12:43;;;;;;;13.02;3.58;;;;;;;15.59;100.00;99487.59;5282933;28;20476;-76
2023/08/03 08:15:15;;;;;;;10.40;3.73;;;;;;;15.52;100.00;99494.06;5283304;28;20067;-76
2023/08/03 08:17:46;;;;;;;12.53;3.40;;;;;;;15.49;100.00;99489.84;5282839;28;20120;-77
2023/08/03 08:20:18;;;;;;;12.20;3.63;;;;;;;15.39;100.00;99496.50;5283416;28;20097;-77
2023/08/03 08:22:49;;;;;;;11.83;3.27;;;;;;;15.36;100.00;99504.56;5283009;28;20036;-77
2023/08/03 08:25:20;;;;;;;9.43;2.53;;;;;;;15.47;100.00;99499.56;5281670;28;20028;-76
2023/08/03 08:27:52;;;;;;;9.33;2.83;;;;;;;15.67;100.00;99503.78;5280608;28;20372;-77
2023/08/03 08:30:23;;;;;;;10.30;3.50;;;;;;;15.67;100.00;99522.16;5282339;28;20025;-76
2023/08/03 08:32:54;;;;;;;10.23;3.10;;;;;;;15.79;100.00;99512.78;5280862;28;20119;-78
2023/08/03 08:35:26;;;;;;;11.43;3.20;;;;;;;15.77;100.00;99530.41;5282885;28;20510;-77
2023/08/03 08:38:00;;;;;;;10.17;2.60;;;;;;;15.67;100.00;99540.53;5281075;28;20062;-78
2023/08/03 08:40:36;;;;;;;9.07;2.95;;;;;;;15.66;100.00;99541.47;5283053;28;20048;-77
2023/08/03 08:43:08;;;;;;;11.05;3.70;;;;;;;15.74;100.00;99546.31;5281974;28;20028;-76
2023/08/03 08:45:40;;;;;;;9.23;2.53;;;;;;;15.80;100.00;99546.03;5281367;28;20383;-77
2023/08/03 08:48:11;;;;;;;10.48;2.83;;;;;;;15.79;100.00;99560.06;5281480;28;20456;-76
2023/08/03 08:50:43;;;;;;;10.77;4.10;;;;;;;15.77;100.00;99560.16;5282743;28;20108;-76
2023/08/03 08:53:15;;;;;;;9.23;2.65;;;;;;;15.91;100.00;99561.22;5282273;28;20408;-78
2023/08/03 08:55:50;;;;;;;7.73;2.10;;;;;;;16.17;100.00;99563.25;5282556;28;20452;-77
2023/08/03 08:58:21;;;;;;;8.02;2.72;;;;;;;16.11;100.00;99571.47;5281852;28;20275;-77
2023/08/03 09:01:01;;;;;;;7.93;3.00;;;;;;;16.03;100.00;99571.03;5282846;28;20102;-77
2023/08/03 09:03:52;;;;;;;4.88;1.67;;;;;;;15.96;100.00;99575.78;5285147;28;20048;-78
2023/08/03 09:06:23;;;;;;;5.43;1.80;;;;;;;15.84;100.00;99576.44;5286434;28;20105;-75
2023/08/03 09:08:56;;;;;;;4.73;2.27;;;;;;;15.67;100.00;99595.72;5286085;28;20467;-74
2023/08/03 09:11:41;;;;;;;5.00;1.40;;;;;;;15.68;100.00;99597.38;5286507;28;20044;-76
2023/08/03 09:14:14;;;;;;;3.95;1.80;;;;;;;15.66;100.00;99597.50;5285896;28;20116;-74
2023/08/03 09:16:45;;;;;;;4.97;2.03;;;;;;;15.77;100.00;99606.63;5286494;28;20041;-75
2023/08/03 09:19:37;;;;;;;4.60;1.87;;;;;;;15.91;100.00;99617.25;5286212;28;20417;-75
2023/08/03 09:22:08;;;;;;;3.35;1.60;;;;;;;16.18;100.00;99620.16;5286417;28;20123;-74
2023/08/03 09:24:40;;;;;;;3.23;1.87;;;;;;;16.22;100.00;99628.72;5286204;28;20117;-75
2023/08/03 09:27:16;;;;;;;4.87;1.53;;;;;;;16.14;100.00;99641.44;5285977;28;20039;-76
2023/08/03 09:29:47;;;;;;;4.35;1.67;;;;;;;16.07;100.00;99643.56;5285956;28;20379;-76
2023/08/03 09:32:19;;;;;;;6.30;3.00;;;;;;;15.99;100.00;99648.38;5284920;28;20032;-76
2023/08/03 09:34:52;;;;;;;5.03;2.00;;;;;;;15.96;100.00;99646.75;5285633;28;20028;-76
2023/08/03 09:37:36;;;;;;;7.85;2.13;;;;;;;15.85;100.00;99649.09;5286313;28;20032;-74
2023/08/03 09:40:09;;;;;;;8.43;3.10;;;;;;;15.99;100.00;99662.34;5285666;28;20032;-77
2023/08/03 09:42:40;;;;;;;10.05;2.75;;;;;;;16.08;100.00;99681.19;5285772;28;20020;-75
2023/08/03 09:45:11;;;;;;;9.40;3.27;;;;;;;16.24;100.00;99674.16;5286050;28;20025;-76
2023/08/03 09:47:43;;;;;;;9.77;3.10;;;;;;;16.56;100.00;99674.19;5285772;28;20120;-76
2023/08/03 09:50:14;;;;;;;8.33;3.00;;;;;;;16.86;100.00;99682.19;5284349;28;20457;-77
2023/08/03 09:52:50;;;;;;;10.27;3.10;;;;;;;16.92;100.00;99696.78;5285189;28;20049;-76
2023/08/03 09:55:33;;;;;;;10.80;3.55;;;;;;;16.83;100.00;99699.91;5286353;28;20492;-76
2023/08/03 09:58:13;;;;;;;10.95;3.08;;;;;;;16.57;100.00;99704.84;5284427;28;20036;-77
2023/08/03 10:00:46;;;;;;;10.90;3.88;;;;;;;16.29;100.00;99701.06;5285476;28;20586;-75
2023/08/03 10:03:18;;;;;;;;;;;;;;;16.26;100.00;99709.16;5285317;28;20051;-75
2023/08/03 10:06:00;;;;;;;9.98;4.18;;;;;;;16.28;100.00;99711.69;5285686;28;19924;-76
2023/08/03 10:08:41;;;;;;;11.33;3.10;;;;;;;16.49;100.00;99714.94;5279340;28;20436;-77
2023/08/03 10:11:13;;;;;;;10.73;3.72;;;;;;;16.63;100.00;99722.06;5263932;28;20068;-76
2023/08/03 10:13:46;;;;;;;8.10;3.45;;;;;;;17.08;100.00;99716.06;5273079;28;20067;-78
2023/08/03 10:16:18;;;;;;;9.80;2.80;;;;;;;17.16;100.00;99725.28;5283711;28;20040;-76
2023/08/03 10:18:51;;;;;;;7.88;3.00;;;;;;;17.64;100.00;99737.38;5284402;28;20123;-77
2023/08/03 10:21:22;;;;;;;8.50;3.13;;;;;;;18.25;100.00;99739.97;5283451;28;20039;-76
2023/08/03 10:24:13;;;;;;;10.37;3.73;;;;;;;18.68;100.00;99736.44;5284518;28;20033;-76
2023/08/03 10:26:51;;;;;;;8.38;2.10;;;;;;;18.73;100.00;99739.63;5283911;28;20029;-76
2023/08/03 10:29:51;;;;;;;5.85;2.17;;;;;;;19.09;100.00;99752.31;5283106;28;20432;-76
2023/08/03 10:32:28;;;;;;;4.10;1.73;;;;;;;19.32;100.00;99749.97;5285100;28;20459;-76
2023/08/03 10:35:38;;;;;;;4.75;2.05;;;;;;;19.07;100.00;99758.63;5284183;28;20136;-76
2023/08/03 10:38:19;;;;;;;4.75;1.70;;;;;;;19.78;100.00;99760.13;5281526;28;20107;-77
2023/08/03 10:41:23;;;;;;;7.43;2.42;;;;;;;19.76;100.00;99763.84;5284289;28;20032;-77
2023/08/03 10:44:06;;;;;;;5.07;2.10;;;;;;;19.25;100.00;99761.88;5282113;28;20455;-76
2023/08/03 10:46:39;;;;;;;5.28;1.80;;;;;;;19.03;100.00;99771.19;5284002;28;20159;-77
2023/08/03 10:49:20;;;;;;;6.43;1.95;;;;;;;18.91;100.00;99769.31;5283166;28;20479;-77
2023/08/03 10:52:15;;;;;;;10.40;2.42;;;;;;;19.23;100.00;99780.47;5282657;28;20464;-77
2023/08/03 10:54:47;;;;;;;5.70;2.17;;;;;;;19.72;98.97;99779.00;5283577;28;20345;-75
2023/08/03 10:57:24;;;;;;;9.35;2.90;;;;;;;19.60;98.94;99779.84;5284150;28;20460;-77
2023/08/03 10:59:57;;;;;;;6.90;2.55;;;;;;;19.49;100.00;99791.94;5282161;28;20049;-77
2023/08/03 11:02:30;;;;;;;6.93;3.10;;;;;;;19.26;99.73;99790.81;5284394;28;20028;-77
2023/08/03 11:05:06;;;;;;;7.93;3.17;;;;;;;19.23;100.00;99798.94;5283715;28;20539;-77
2023/08/03 11:07:43;;;;;;;6.40;2.10;;;;;;;18.82;100.00;99796.28;5275436;28;20029;-77
2023/08/03 11:10:16;;;;;;;6.63;2.10;;;;;;;18.40;100.00;99797.06;5283558;28;20020;-78
2023/08/03 11:12:49;;;;;;;9.85;2.55;;;;;;;18.58;100.00;99816.19;5283235;28;20121;-77
2023/08/03 11:15:20;;;;;;;7.75;3.53;;;;;;;18.76;100.00;99821.28;5282243;28;20111;-77
2023/08/03 11:17:52;;;;;;;6.97;2.43;;;;;;;18.31;100.00;99818.72;5282722;28;20914;-77
2023/08/03 11:20:23;;;;;;;10.07;3.43;;;;;;;17.76;100.00;99819.31;5283549;28;20421;-78
2023/08/03 11:22:54;;;;;;;11.37;3.07;;;;;;;17.28;100.00;99817.63;5281545;28;20044;-75
2023/08/03 11:25:26;;;;;;;9.17;3.40;;;;;;;17.03;100.00;99806.75;5280774;28;20170;-77
2023/08/03 11:27:57;;;;;;;15.93;3.77;;;;;;;16.72;100.00;99806.59;5297960;28;20036;-76
2023/08/03 11:30:29;;;;;;;12.60;3.77;;;;;;;16.69;100.00;99813.81;5281967;28;20028;-74
2023/08/03 11:33:00;;;;;;;13.13;4.20;;;;;;;16.57;100.00;99825.88;5281355;28;20430;-74
2023/08/03 11:35:31;;;;;;;17.17;5.30;;;;;;;16.50;100.00;99824.47;5283031;28;20403;-75
2023/08/03 11:38:06;;;;;;;14.77;5.00;;;;;;;16.58;100.00;99824.91;5281630;28;20028;-75
2023/08/03 11:40:38;;;;;;;14.20;4.78;;;;;;;16.78;100.00;99843.13;5282792;28;20078;-74
2023/08/03 11:43:10;;;;;;;9.30;3.77;;;;;;;16.70;100.00;99842.69;5282616;28;20040;-74
2023/08/03 11:45:43;;;;;;;14.50;5.18;;;;;;;16.80;100.00;99864.09;5283820;28;20107;-74